Pembina, ND (58271)

2:45 PM CDT on September 01, 2014 (GMT -0500)
Hallock Municipal | Change Station
CLOSE
Current Station
Airport
Location: Hallock,
Elevation: 820 ft
Nearby Weather Stations

Elev 820 ft 48.75 °N, 96.94 °W | Updated 12 minutes ago

Thunderstorm
Thunderstorm
73 °F
Feels Like 73 °F
N
10
Wind Variable Wind from WSW
Gusts 16 mph

Today
High -- | Low -- °F
--% Chance of Precip.
Yesterday
High -- | Low -- °F
Precip. -- in
6:45 AM 8:11 PM
Waxing Crescent, 43% visible
Pressure 29.67 in
Visibility 10.0 miles
Clouds Scattered Clouds 4800 ft
Dew Point 55 °F
Humidity 53%
Rainfall 0.00 in
Snow Depth Not available.
UV 6 out of 12
Pollen 9.30 out of 12
Air Quality Not available.
Flu Activity Not available.
METAR KHCO 011933Z AUTO 24009G14KT 10SM TS SCT048 23/13 A2967 RMK AO2 LTG DSNT N S AND NW

More Conditions Fewer Conditions

Pressure 29.67 in
Visibility 10.0 miles
Clouds Scattered Clouds 4800 ft
Dew Point 55 °F
Humidity 53%
Rainfall 0.00 in
Snow Depth Not available.
UV 6 out of 12
Pollen 9.30 out of 12
Air Quality Not available.
Flu Activity Not available.
METAR KHCO 011933Z AUTO 24009G14KT 10SM TS SCT048 23/13 A2967 RMK AO2 LTG DSNT N S AND NW

More Conditions Fewer Conditions

10-Day Weather Forecast

Almanac

Astronomy

Sep. 01, 2014 Rise Set
Actual Time 6:45 AM CDT 8:11 PM CDT
Civil Twilight 6:12 AM CDT 8:43 PM CDT
Nautical Twilight 5:32 AM CDT 9:23 PM CDT
Astronomical Twilight 4:49 AM CDT 10:06 PM CDT
Moon 2:07 PM CDT 11:38 PM CDT
Length of Visible Light 14h 31m
Length of Day
13h 25m
Tomorrow will be 3m 29s shorter.
Waxing Crescent, 43% of the Moon is Illuminated
Today
Waxing Crescent
Sep 2
First Quarter
Sep 8
Full
Sep 15
Last Quarter
Sep 24
New

Today's Extremes

State Highs State Lows

Community

WunderPhotos

Upload Photos

1,749,387 photos uploaded!

WunderBlogs® & News

Nearby

Snow Depth

Station Depth Elevation
No new snow has been reported.

Earthquake Activity

City Distance Mag. Time & Date
No recent earthquake activity has been reported nearby.
Minimum magnitude displayed is 2.5.

Coastal Water Temperatures

Place Temperature
No Stations Reporting

Nearby Weather Stations